OPDG

Dera Ghazi Khan Airport

Dera Ghazi Khan, Pakistan
TAF OPDG 221010Z 2212/2306 05010KT 4000 FU FEW120 TN24/2301Z
Issued Valid From Valid To
Sep-22 @ 10:10 UTC
(5 hours ago)
Sep-22 @ 12:00 UTC
(3 hours ago)
Sep-23 @ 06:00 UTC
(in 15 hours)
to
TAF OPDG 221010Z 2212/2306 05010KT 4000 FU FEW120 TN24/2301Z
Issued Sep-22 @ 10:10 UTC
(5 hours ago)
Valid From Sep-22 @ 12:00 UTC
(3 hours ago)
Valid To Sep-23 @ 06:00 UTC
(in 15 hours)
-